createdAt,value
2018-03-20T00:01:14.531Z,100388.39
2018-03-20T00:03:41.948Z,100383.81
2018-03-20T00:06:09.343Z,100377.59
2018-03-20T00:08:36.907Z,100373.66
2018-03-20T00:11:04.303Z,100375.95
2018-03-20T00:13:31.707Z,100370.84
2018-03-20T00:15:59.115Z,100377.05
2018-03-20T00:18:26.559Z,100380.83
2018-03-20T00:20:53.973Z,100389.46
2018-03-20T00:23:21.364Z,100384.34
2018-03-20T00:25:48.919Z,100381.92
2018-03-20T00:28:16.326Z,100389.48
2018-03-20T00:30:43.719Z,100385.56
2018-03-20T00:33:11.232Z,100383.42
2018-03-20T00:35:38.622Z,100379.74
2018-03-20T00:38:06.014Z,100372.73
2018-03-20T00:40:33.419Z,100379.36
2018-03-20T00:43:00.824Z,100383.28
2018-03-20T00:45:28.228Z,100383.42
2018-03-20T00:47:55.918Z,100385.83
2018-03-20T00:50:23.315Z,100370.97
2018-03-20T00:52:50.699Z,100375.69
2018-03-20T00:55:18.127Z,100376.77
2018-03-20T00:57:45.513Z,100377.70
2018-03-20T01:00:12.927Z,100372.80
2018-03-20T01:02:40.323Z,100374.14
2018-03-20T01:05:07.727Z,100368.31
2018-03-20T01:07:35.123Z,100368.55
2018-03-20T01:10:02.535Z,100364.48
2018-03-20T01:12:29.926Z,100362.14
2018-03-20T01:14:57.319Z,100359.16
2018-03-20T01:17:24.743Z,100358.45
2018-03-20T01:19:52.141Z,100356.38
2018-03-20T01:22:19.540Z,100363.92
2018-03-20T01:24:46.966Z,100360.13
2018-03-20T01:27:14.355Z,100354.53
2018-03-20T01:29:41.767Z,100353.85
2018-03-20T01:32:09.163Z,100352.63
2018-03-20T01:34:36.554Z,100343.95
2018-03-20T01:37:03.967Z,100348.14
2018-03-20T01:39:31.380Z,100338.52
2018-03-20T01:41:58.771Z,100335.12
2018-03-20T01:44:26.173Z,100322.67
2018-03-20T01:46:53.555Z,100325.45
2018-03-20T01:49:20.959Z,100327.16
2018-03-20T01:51:48.354Z,100324.44
2018-03-20T01:54:15.753Z,100334.89
2018-03-20T01:56:43.138Z,100310.60
2018-03-20T01:59:10.535Z,100305.84
2018-03-20T02:01:37.940Z,100313.67
2018-03-20T02:04:05.336Z,100304.41
2018-03-20T02:06:32.716Z,100289.22
2018-03-20T02:09:00.116Z,100282.39
2018-03-20T02:11:27.507Z,100286.98
2018-03-20T02:13:54.915Z,100282.05
2018-03-20T02:16:28.084Z,100275.89
2018-03-20T02:18:55.498Z,100277.36
2018-03-20T02:21:22.878Z,100276.52
2018-03-20T02:23:50.295Z,100283.80
2018-03-20T02:26:17.675Z,100280.69
2018-03-20T02:28:45.082Z,100276.05
2018-03-20T02:31:12.483Z,100263.31
2018-03-20T02:33:39.882Z,100265.78
2018-03-20T02:36:07.287Z,100266.97
2018-03-20T02:38:34.684Z,100268.19
2018-03-20T02:41:02.084Z,100263.55
2018-03-20T02:43:29.485Z,100265.31
2018-03-20T02:45:56.885Z,100263.42
2018-03-20T02:48:24.285Z,100255.28
2018-03-20T02:50:51.676Z,100253.79
2018-03-20T02:53:19.431Z,100244.00
2018-03-20T02:55:46.831Z,100245.87
2018-03-20T02:58:14.227Z,100236.92
2018-03-20T03:00:41.641Z,100238.84
2018-03-20T03:03:09.031Z,100235.45
2018-03-20T03:05:36.444Z,100228.81
2018-03-20T03:08:03.829Z,100234.81
2018-03-20T03:10:31.221Z,100236.98
2018-03-20T03:12:58.637Z,100232.10
2018-03-20T03:15:26.019Z,100234.81
2018-03-20T03:17:53.622Z,100231.73
2018-03-20T03:20:21.013Z,100244.73
2018-03-20T03:22:48.394Z,100235.39
2018-03-20T03:25:15.803Z,100234.98
2018-03-20T03:27:43.191Z,100230.75
2018-03-20T03:30:10.599Z,100239.59
2018-03-20T03:32:37.998Z,100237.69
2018-03-20T03:35:05.378Z,100233.36
2018-03-20T03:37:32.796Z,100237.72
2018-03-20T03:40:00.192Z,100236.32
2018-03-20T03:42:27.609Z,100238.70
2018-03-20T03:44:54.994Z,100242.29
2018-03-20T03:47:22.391Z,100239.63
2018-03-20T03:49:49.800Z,100237.25
2018-03-20T03:52:17.483Z,100245.38
2018-03-20T03:54:44.902Z,100249.48
2018-03-20T03:57:12.287Z,100246.34
2018-03-20T03:59:39.696Z,100239.17
2018-03-20T04:02:07.311Z,100240.34
2018-03-20T04:04:34.710Z,100244.86
2018-03-20T04:07:02.108Z,100240.61
2018-03-20T04:09:29.516Z,100240.72
2018-03-20T04:11:56.906Z,100254.08
2018-03-20T04:14:24.426Z,100245.75
2018-03-20T04:16:51.815Z,100244.66
2018-03-20T04:19:19.216Z,100242.54
2018-03-20T04:21:46.627Z,100248.20
2018-03-20T04:24:14.006Z,100252.23
2018-03-20T04:26:41.454Z,100257.94
2018-03-20T04:29:08.832Z,100255.45
2018-03-20T04:31:36.246Z,100254.04
2018-03-20T04:34:03.640Z,100244.41
2018-03-20T04:36:31.045Z,100244.89
2018-03-20T04:38:58.439Z,100252.89
2018-03-20T04:41:25.831Z,100244.45
2018-03-20T04:43:53.240Z,100242.52
2018-03-20T04:46:20.651Z,100243.84
2018-03-20T04:48:48.054Z,100247.20
2018-03-20T04:51:15.462Z,100245.02
2018-03-20T04:53:42.862Z,100243.36
2018-03-20T04:56:10.268Z,100243.09
2018-03-20T04:58:37.770Z,100239.84
2018-03-20T05:01:05.163Z,100243.87
2018-03-20T05:03:32.567Z,100249.27
2018-03-20T05:06:00.129Z,100252.34
2018-03-20T05:08:27.526Z,100253.77
2018-03-20T05:10:54.920Z,100256.48
2018-03-20T05:13:22.331Z,100252.91
2018-03-20T05:15:49.726Z,100256.14
2018-03-20T05:18:17.122Z,100262.10
2018-03-20T05:20:50.102Z,100259.08
2018-03-20T05:23:22.456Z,100260.41
2018-03-20T05:25:50.007Z,100251.58
2018-03-20T05:28:17.403Z,100248.46
2018-03-20T05:30:44.812Z,100247.47
2018-03-20T05:33:12.216Z,100240.07
2018-03-20T05:35:39.633Z,100244.61
2018-03-20T05:38:07.027Z,100244.02
2018-03-20T05:40:34.426Z,100246.56
2018-03-20T05:43:02.100Z,100249.37
2018-03-20T05:45:29.491Z,100246.34
2018-03-20T05:48:02.596Z,100245.30
2018-03-20T05:50:35.691Z,100247.14
2018-03-20T05:53:03.475Z,100241.42
2018-03-20T05:55:30.876Z,100246.25
2018-03-20T05:57:58.267Z,100252.63
2018-03-20T06:00:25.684Z,100262.30
2018-03-20T06:02:53.193Z,100269.47
2018-03-20T06:05:20.587Z,100264.72
2018-03-20T06:07:47.982Z,100276.02
2018-03-20T06:10:15.404Z,100275.84
2018-03-20T06:12:42.802Z,100283.95
2018-03-20T06:15:10.192Z,100278.31
2018-03-20T06:17:37.623Z,100283.94
2018-03-20T06:20:05.017Z,100286.55
2018-03-20T06:22:32.431Z,100287.14
2018-03-20T06:24:59.823Z,100293.86
2018-03-20T06:27:27.234Z,100300.23
2018-03-20T06:29:54.899Z,100295.13
2018-03-20T06:32:22.297Z,100291.66
2018-03-20T06:34:49.695Z,100299.53
2018-03-20T06:37:17.116Z,100308.14
2018-03-20T06:39:44.527Z,100311.14
2018-03-20T06:42:11.941Z,100314.41
2018-03-20T06:44:39.339Z,100320.98
2018-03-20T06:47:06.763Z,100332.21
2018-03-20T06:49:34.159Z,100329.73
2018-03-20T06:52:01.624Z,100335.26
2018-03-20T06:54:29.043Z,100346.17
2018-03-20T06:56:56.441Z,100337.33
2018-03-20T06:59:23.852Z,100344.37
2018-03-20T07:01:51.247Z,100351.62
2018-03-20T07:04:18.655Z,100350.80
2018-03-20T07:06:46.072Z,100347.64
2018-03-20T07:09:13.501Z,100352.16
2018-03-20T07:11:40.892Z,100356.42
2018-03-20T07:14:08.287Z,100355.55
2018-03-20T07:16:35.690Z,100361.64
2018-03-20T07:19:03.083Z,100362.59
2018-03-20T07:21:30.497Z,100367.48
2018-03-20T07:23:57.895Z,100371.60
2018-03-20T07:26:25.652Z,100369.78
2018-03-20T07:28:53.054Z,100375.59
2018-03-20T07:31:20.447Z,100377.14
2018-03-20T07:33:47.842Z,100382.34
2018-03-20T07:36:15.255Z,100383.52
2018-03-20T07:38:42.643Z,100388.08
2018-03-20T07:41:10.047Z,100397.29
2018-03-20T07:43:37.626Z,100405.80
2018-03-20T07:46:05.340Z,100413.61
2018-03-20T07:48:32.740Z,100407.41
2018-03-20T07:51:00.181Z,100427.98
2018-03-20T07:53:27.584Z,100415.59
2018-03-20T07:55:54.977Z,100425.33
2018-03-20T07:58:22.396Z,100425.53
2018-03-20T08:00:49.929Z,100433.96
2018-03-20T08:03:17.333Z,100430.64
2018-03-20T08:05:44.708Z,100451.05
2018-03-20T08:08:12.106Z,100450.72
2018-03-20T08:10:39.503Z,100450.59
2018-03-20T08:13:06.910Z,100465.09
2018-03-20T08:15:34.306Z,100437.20
2018-03-20T08:18:01.711Z,100451.10
2018-03-20T08:20:29.120Z,100453.92
2018-03-20T08:22:56.516Z,100469.53
2018-03-20T08:25:23.923Z,100466.48
2018-03-20T08:27:51.311Z,100457.34
2018-03-20T08:30:18.716Z,100480.49
2018-03-20T08:32:46.091Z,100462.86
2018-03-20T08:35:13.503Z,100477.19
2018-03-20T08:37:40.891Z,100481.23
2018-03-20T08:40:08.548Z,100492.16
2018-03-20T08:42:35.928Z,100494.08
2018-03-20T08:45:03.315Z,100504.61
2018-03-20T08:47:30.742Z,100519.17
2018-03-20T08:49:58.177Z,100513.52
2018-03-20T08:52:25.803Z,100523.44
2018-03-20T08:54:53.188Z,100536.53
2018-03-20T08:57:20.583Z,100539.27
2018-03-20T08:59:47.981Z,100531.47
2018-03-20T09:02:15.372Z,100543.97
2018-03-20T09:04:42.775Z,100551.64
2018-03-20T09:07:10.164Z,100547.80
2018-03-20T09:09:37.578Z,100536.67
2018-03-20T09:12:04.965Z,100538.55
2018-03-20T09:14:32.371Z,100548.79
2018-03-20T09:16:59.765Z,100560.52
2018-03-20T09:19:27.168Z,100557.45
2018-03-20T09:21:54.584Z,100568.69
2018-03-20T09:24:21.971Z,100560.64
2018-03-20T09:26:49.375Z,100563.45
2018-03-20T09:29:16.756Z,100573.61
2018-03-20T09:31:44.200Z,100575.08
2018-03-20T09:34:11.566Z,100572.58
2018-03-20T09:36:38.955Z,100578.68
2018-03-20T09:39:06.504Z,100577.72
2018-03-20T09:41:33.882Z,100595.11
2018-03-20T09:44:01.343Z,100599.90
2018-03-20T09:46:28.731Z,100595.29
2018-03-20T09:48:56.124Z,100601.21
2018-03-20T09:51:23.524Z,100612.08
2018-03-20T09:53:50.915Z,100600.80
2018-03-20T09:56:18.319Z,100614.84
2018-03-20T09:58:45.719Z,100609.23
2018-03-20T10:01:13.139Z,100603.70
2018-03-20T10:03:40.533Z,100610.80
2018-03-20T10:06:07.987Z,100612.88
2018-03-20T10:08:35.320Z,100618.23
2018-03-20T10:11:02.723Z,100608.16
2018-03-20T10:13:30.119Z,100615.16
2018-03-20T10:15:57.509Z,100628.61
2018-03-20T10:18:24.948Z,100632.17
2018-03-20T10:20:52.440Z,100628.05
2018-03-20T10:23:19.819Z,100643.58
2018-03-20T10:25:47.223Z,100667.09
2018-03-20T10:28:14.624Z,100653.86
2018-03-20T10:30:42.025Z,100656.47
2018-03-20T10:33:09.420Z,100653.73
2018-03-20T10:35:36.816Z,100658.06
2018-03-20T10:38:04.216Z,100658.64
2018-03-20T10:40:31.607Z,100657.02
2018-03-20T10:42:59.075Z,100667.63
2018-03-20T10:45:26.472Z,100667.55
2018-03-20T10:47:53.871Z,100663.23
2018-03-20T10:50:21.262Z,100669.20
2018-03-20T10:52:48.672Z,100676.82
2018-03-20T10:55:16.073Z,100686.66
2018-03-20T10:57:43.463Z,100685.75
2018-03-20T11:00:10.889Z,100690.56
2018-03-20T11:02:43.951Z,100695.87
2018-03-20T11:05:11.361Z,100698.02
2018-03-20T11:07:38.797Z,100697.38
2018-03-20T11:10:06.199Z,100701.48
2018-03-20T11:12:33.605Z,100711.48
2018-03-20T11:15:01.024Z,100711.21
2018-03-20T11:17:28.430Z,100723.84
2018-03-20T11:19:55.843Z,100721.73
2018-03-20T11:22:23.379Z,100725.90
2018-03-20T11:24:50.771Z,100722.24
2018-03-20T11:27:18.270Z,100721.59
2018-03-20T11:29:45.672Z,100735.91
2018-03-20T11:32:13.212Z,100725.77
2018-03-20T11:34:40.666Z,100738.83
2018-03-20T11:37:08.078Z,100741.86
2018-03-20T11:39:35.508Z,100752.59
2018-03-20T11:42:02.854Z,100743.78
2018-03-20T11:44:30.239Z,100755.45
2018-03-20T11:46:57.647Z,100742.64
2018-03-20T11:49:25.036Z,100747.22
2018-03-20T11:51:52.426Z,100759.44
2018-03-20T11:54:19.856Z,100762.48
2018-03-20T11:56:47.244Z,100763.83
2018-03-20T11:59:14.661Z,100773.38
2018-03-20T12:01:42.051Z,100767.05
2018-03-20T12:04:09.446Z,100778.96
2018-03-20T12:06:36.868Z,100768.50
2018-03-20T12:12:10.817Z,100775.38
2018-03-20T12:14:38.212Z,100774.61
2018-03-20T12:17:05.602Z,100787.30
2018-03-20T12:19:33.000Z,100789.84
2018-03-20T12:22:00.384Z,100784.81
2018-03-20T12:24:28.107Z,100792.97
2018-03-20T12:26:55.512Z,100815.41
2018-03-20T12:29:22.924Z,100800.38
2018-03-20T12:31:50.392Z,100791.67
2018-03-20T12:34:18.172Z,100801.22
2018-03-20T12:36:45.571Z,100798.83
2018-03-20T12:39:12.968Z,100805.88
2018-03-20T12:41:40.391Z,100789.18
2018-03-20T12:44:07.784Z,100803.79
2018-03-20T12:46:35.211Z,100806.33
2018-03-20T12:49:02.585Z,100810.70
2018-03-20T12:51:29.980Z,100819.72
2018-03-20T12:53:57.372Z,100813.58
2018-03-20T12:56:24.776Z,100820.08
2018-03-20T12:58:52.200Z,100835.23
2018-03-20T13:01:19.631Z,100833.63
2018-03-20T13:03:47.045Z,100835.08
2018-03-20T13:06:14.467Z,100840.26
2018-03-20T13:08:41.942Z,100838.70
2018-03-20T13:11:09.331Z,100842.69
2018-03-20T13:13:36.716Z,100824.14
2018-03-20T13:16:04.117Z,100836.56
2018-03-20T13:18:31.504Z,100835.74
2018-03-20T13:20:58.919Z,100844.20
2018-03-20T13:23:26.407Z,100850.45
2018-03-20T13:25:53.883Z,100845.52
2018-03-20T13:28:21.269Z,100846.16
2018-03-20T13:31:00.707Z,100849.81
2018-03-20T13:33:28.216Z,100856.00
2018-03-20T13:35:55.964Z,100848.19
2018-03-20T13:38:23.354Z,100851.09
2018-03-20T13:40:50.758Z,100865.45
2018-03-20T13:43:18.568Z,100854.15
2018-03-20T13:45:45.947Z,100857.22
2018-03-20T13:48:13.327Z,100864.41
2018-03-20T13:50:40.739Z,100870.63
2018-03-20T13:53:08.133Z,100878.02
2018-03-20T13:55:35.535Z,100861.17
2018-03-20T13:58:02.949Z,100881.02
2018-03-20T14:00:30.363Z,100868.03
2018-03-20T14:02:57.776Z,100885.13
2018-03-20T14:05:25.178Z,100883.76
2018-03-20T14:07:52.598Z,100880.76
2018-03-20T14:10:19.986Z,100893.15
2018-03-20T14:12:47.398Z,100888.67
2018-03-20T14:15:14.858Z,100891.83
2018-03-20T14:17:43.463Z,100887.67
2018-03-20T14:20:12.508Z,100913.19
2018-03-20T14:22:39.922Z,100889.84
2018-03-20T14:25:07.320Z,100908.16
2018-03-20T14:27:34.727Z,100907.27
2018-03-20T14:30:02.146Z,100895.20
2018-03-20T14:32:29.536Z,100907.70
2018-03-20T14:34:56.938Z,100903.34
2018-03-20T14:37:24.321Z,100915.06
2018-03-20T14:39:51.736Z,100903.53
2018-03-20T14:42:19.124Z,100919.31
2018-03-20T14:44:46.561Z,100921.39
2018-03-20T14:47:13.948Z,100924.70
2018-03-20T14:49:41.359Z,100930.16
2018-03-20T14:52:08.759Z,100925.13
2018-03-20T14:54:36.154Z,100920.94
2018-03-20T14:57:03.577Z,100930.59
2018-03-20T14:59:30.966Z,100933.81
2018-03-20T15:01:58.369Z,100942.54
2018-03-20T15:04:25.778Z,100944.46
2018-03-20T15:06:53.247Z,100947.24
2018-03-20T15:09:20.645Z,100947.31
2018-03-20T15:11:48.028Z,100945.50
2018-03-20T15:14:15.431Z,100949.84
2018-03-20T15:16:42.819Z,100954.88
2018-03-20T15:19:10.223Z,100964.29
2018-03-20T15:21:37.611Z,100959.80
2018-03-20T15:24:05.024Z,100961.98
2018-03-20T15:26:32.403Z,100972.70
2018-03-20T15:28:59.807Z,100973.18
2018-03-20T15:31:27.207Z,100978.97
2018-03-20T15:33:54.619Z,100975.59
2018-03-20T15:36:22.018Z,100977.19
2018-03-20T15:38:50.403Z,100978.36
2018-03-20T15:41:17.809Z,100988.38
2018-03-20T15:43:45.484Z,100983.15
2018-03-20T15:46:12.884Z,100977.72
2018-03-20T15:48:40.275Z,100991.91
2018-03-20T15:51:07.904Z,100998.48
2018-03-20T15:53:35.288Z,100999.07
2018-03-20T15:56:02.688Z,100988.70
2018-03-20T15:58:30.110Z,101009.23
2018-03-20T16:00:57.555Z,100999.10
2018-03-20T16:03:24.947Z,101007.92
2018-03-20T16:05:52.355Z,101011.55
2018-03-20T16:08:19.799Z,101025.12
2018-03-20T16:10:47.181Z,101016.42
2018-03-20T16:13:15.008Z,101037.44
2018-03-20T16:15:42.619Z,101035.17
2018-03-20T16:18:11.067Z,101039.25
2018-03-20T16:20:38.728Z,101032.48
2018-03-20T16:23:06.379Z,101041.59
2018-03-20T16:25:34.056Z,101049.95
2018-03-20T16:28:01.736Z,101051.02
2018-03-20T16:30:29.417Z,101043.73
2018-03-20T16:32:57.068Z,101055.86
2018-03-20T16:35:24.757Z,101058.86
2018-03-20T16:37:52.385Z,101068.45
2018-03-20T16:40:20.285Z,101078.11
2018-03-20T16:42:48.080Z,101089.65
2018-03-20T16:45:15.732Z,101086.84
2018-03-20T16:47:43.440Z,101101.09
2018-03-20T16:50:11.031Z,101098.82
2018-03-20T16:52:38.795Z,101109.78
2018-03-20T16:55:06.446Z,101115.41
2018-03-20T16:57:34.082Z,101122.91
2018-03-20T17:00:01.755Z,101117.60
2018-03-20T17:02:29.634Z,101123.20
2018-03-20T17:04:57.267Z,101130.22
2018-03-20T17:07:24.866Z,101131.20
2018-03-20T17:09:52.530Z,101133.27
2018-03-20T17:12:20.185Z,101138.60
2018-03-20T17:14:47.892Z,101154.20
2018-03-20T17:17:15.619Z,101147.88
2018-03-20T17:19:43.331Z,101153.05
2018-03-20T17:22:10.942Z,101153.45
2018-03-20T17:24:38.883Z,101158.02
2018-03-20T17:27:06.537Z,101169.56
2018-03-20T17:29:34.140Z,101168.69
2018-03-20T17:32:01.818Z,101174.69
2018-03-20T17:34:29.482Z,101179.13
2018-03-20T17:36:57.182Z,101185.61
2018-03-20T17:39:24.810Z,101188.92
2018-03-20T17:41:52.549Z,101189.95
2018-03-20T17:44:20.720Z,101199.48
2018-03-20T17:46:48.366Z,101206.52
2018-03-20T17:49:16.255Z,101208.06
2018-03-20T17:51:44.007Z,101209.93
2018-03-20T17:54:11.775Z,101212.72
2018-03-20T17:56:39.214Z,101213.92
2018-03-20T17:59:06.620Z,101218.11
2018-03-20T18:01:34.025Z,101223.52
2018-03-20T18:04:01.451Z,101228.62
2018-03-20T18:06:28.897Z,101235.84
2018-03-20T18:08:56.271Z,101230.16
2018-03-20T18:11:23.674Z,101240.17
2018-03-20T18:13:51.114Z,101246.13
2018-03-20T18:16:18.503Z,101249.62
2018-03-20T18:18:45.948Z,101254.23
2018-03-20T18:21:13.342Z,101249.91
2018-03-20T18:23:40.897Z,101257.48
2018-03-20T18:26:08.305Z,101251.55
2018-03-20T18:28:35.736Z,101261.24
2018-03-20T18:31:03.214Z,101267.87
2018-03-20T18:33:30.623Z,101264.11
2018-03-20T18:35:58.047Z,101270.73
2018-03-20T18:38:25.443Z,101272.27
2018-03-20T18:40:52.856Z,101282.70
2018-03-20T18:43:20.256Z,101288.77
2018-03-20T18:45:47.671Z,101288.01
2018-03-20T18:48:15.056Z,101287.79
2018-03-20T18:50:42.469Z,101296.28
2018-03-20T18:53:09.860Z,101296.74
2018-03-20T18:55:37.268Z,101299.23
2018-03-20T18:58:04.671Z,101310.17
2018-03-20T19:00:32.056Z,101314.25
2018-03-20T19:02:59.450Z,101318.81
2018-03-20T19:05:26.871Z,101322.13
2018-03-20T19:07:54.266Z,101327.23
2018-03-20T19:10:21.680Z,101329.99
2018-03-20T19:12:49.079Z,101333.29
2018-03-20T19:15:16.523Z,101336.31
2018-03-20T19:17:44.209Z,101339.61
2018-03-20T19:20:11.635Z,101340.60
2018-03-20T19:22:39.020Z,101348.68
2018-03-20T19:25:06.436Z,101350.76
2018-03-20T19:27:33.850Z,101357.20
2018-03-20T19:30:01.531Z,101356.25
2018-03-20T19:32:28.946Z,101369.48
2018-03-20T19:34:56.331Z,101370.70
2018-03-20T19:37:23.743Z,101375.39
2018-03-20T19:39:51.141Z,101378.09
2018-03-20T19:42:18.541Z,101386.42
2018-03-20T19:44:46.103Z,101388.73
2018-03-20T19:47:13.630Z,101389.03
2018-03-20T19:49:41.044Z,101399.98
2018-03-20T19:52:08.540Z,101398.60
2018-03-20T19:54:35.941Z,101409.38
2018-03-20T19:57:03.472Z,101405.45
2018-03-20T19:59:30.868Z,101413.64
2018-03-20T20:01:58.256Z,101413.64
2018-03-20T20:04:25.785Z,101421.57
2018-03-20T20:06:53.174Z,101424.98
2018-03-20T20:09:20.582Z,101432.36
2018-03-20T20:11:47.982Z,101426.78
2018-03-20T20:14:15.418Z,101434.93
2018-03-20T20:16:42.774Z,101433.59
2018-03-20T20:19:10.163Z,101437.97
2018-03-20T20:21:37.591Z,101448.59
2018-03-20T20:24:04.992Z,101450.62
2018-03-20T20:26:32.540Z,101455.13
2018-03-20T20:28:59.932Z,101463.00
2018-03-20T20:31:27.327Z,101467.11
2018-03-20T20:33:54.739Z,101468.47
2018-03-20T20:36:22.180Z,101467.25
2018-03-20T20:38:49.606Z,101476.38
2018-03-20T20:41:17.043Z,101469.14
2018-03-20T20:43:44.476Z,101477.84
2018-03-20T20:46:11.984Z,101485.77
2018-03-20T20:48:39.391Z,101488.08
2018-03-20T20:51:06.784Z,101485.07
2018-03-20T20:53:34.204Z,101490.77
2018-03-20T20:56:01.596Z,101493.63
2018-03-20T20:58:29.018Z,101500.71
2018-03-20T21:00:56.404Z,101501.37
2018-03-20T21:03:23.796Z,101506.82
2018-03-20T21:05:51.243Z,101510.36
2018-03-20T21:08:18.667Z,101514.16
2018-03-20T21:10:46.136Z,101517.70
2018-03-20T21:13:13.552Z,101513.20
2018-03-20T21:15:40.983Z,101515.64
2018-03-20T21:18:08.731Z,101512.89
2018-03-20T21:20:36.118Z,101511.52
2018-03-20T21:23:03.520Z,101512.47
2018-03-20T21:25:30.920Z,101515.44
2018-03-20T21:27:58.425Z,101510.28
2018-03-20T21:30:25.757Z,101512.45
2018-03-20T21:32:53.168Z,101515.67
2018-03-20T21:35:21.010Z,101514.46
2018-03-20T21:37:48.406Z,101511.16
2018-03-20T21:40:15.831Z,101512.75
2018-03-20T21:42:43.263Z,101510.15
2018-03-20T21:45:10.691Z,101510.39
2018-03-20T21:47:38.091Z,101516.92
2018-03-20T21:50:05.506Z,101516.46
2018-03-20T21:52:32.919Z,101517.97
2018-03-20T21:55:00.324Z,101516.03
2018-03-20T21:57:27.723Z,101522.00
2018-03-20T21:59:55.140Z,101519.56
2018-03-20T22:02:22.630Z,101522.27
2018-03-20T22:04:50.113Z,101522.52
2018-03-20T22:07:17.538Z,101521.55
2018-03-20T22:09:44.965Z,101523.31
2018-03-20T22:12:12.392Z,101523.69
2018-03-20T22:14:39.812Z,101525.73
2018-03-20T22:17:07.290Z,101536.16
2018-03-20T22:19:34.732Z,101534.93
2018-03-20T22:22:02.133Z,101530.97
2018-03-20T22:24:29.535Z,101543.17
2018-03-20T22:26:56.940Z,101544.92
2018-03-20T22:29:24.405Z,101545.58
2018-03-20T22:31:51.836Z,101543.81
2018-03-20T22:34:19.263Z,101550.88
2018-03-20T22:36:46.656Z,101552.47
2018-03-20T22:39:14.094Z,101560.48
2018-03-20T22:41:41.608Z,101566.16
2018-03-20T22:44:08.939Z,101563.56
2018-03-20T22:46:36.660Z,101561.00
2018-03-20T22:49:04.095Z,101563.42
2018-03-20T22:51:31.477Z,101557.45
2018-03-20T22:53:58.883Z,101562.45
2018-03-20T22:56:26.292Z,101559.16
2018-03-20T22:58:53.701Z,101572.72
2018-03-20T23:01:21.123Z,101571.34
2018-03-20T23:03:48.548Z,101563.72
2018-03-20T23:06:16.005Z,101566.00
2018-03-20T23:08:43.472Z,101571.53
2018-03-20T23:11:10.872Z,101571.10
2018-03-20T23:13:38.280Z,101584.53
2018-03-20T23:16:05.698Z,101587.25
2018-03-20T23:18:33.091Z,101589.38
2018-03-20T23:21:00.652Z,101589.13
2018-03-20T23:23:28.059Z,101595.61
2018-03-20T23:25:55.459Z,101590.45
2018-03-20T23:28:22.872Z,101592.08
2018-03-20T23:30:50.275Z,101593.95
2018-03-20T23:33:17.705Z,101590.97
2018-03-20T23:35:45.087Z,101588.50
2018-03-20T23:38:12.500Z,101590.39
2018-03-20T23:40:39.898Z,101594.20
2018-03-20T23:43:07.656Z,101592.41
2018-03-20T23:45:39.672Z,101594.81
2018-03-20T23:48:07.080Z,101593.67
2018-03-20T23:50:34.772Z,101591.88
2018-03-20T23:53:02.164Z,101591.73
2018-03-20T23:55:29.571Z,101596.14
2018-03-20T23:57:56.967Z,101598.72
